Time;durP1;ratioP1;P1;durP2;ratioP2;P2;SDS_P1;SDS_P2;PMS_P1;PMS_P2;Temp;Humidity;BMP_temperature;BMP_pressure;BME280_temperature;BME280_humidity;BME280_pressure;Samples;Min_cycle;Max_cycle;Signal;HPM_P1;HPM_P2
2024/04/22 00:00:15;;;;;;;4.88;2.83;;;;;;;;;;5004083;28;20058;-77
2024/04/22 00:02:41;;;;;;;4.68;2.50;;;;;;;;;;5028744;28;20053;-75
2024/04/22 00:05:10;;;;;;;2.78;2.38;;;;;;;;;;5044098;28;20036;-75
2024/04/22 00:07:36;;;;;;;3.20;2.42;;;;;;;;;;5008131;28;20032;-75
2024/04/22 00:10:02;;;;;;;6.50;2.90;;;;;;;;;;5007459;28;20061;-75
2024/04/22 00:12:29;;;;;;;6.95;2.78;;;;;;;;;;5003230;28;20040;-75
2024/04/22 00:14:55;;;;;;;6.78;3.83;;;;;;;;;;5021908;28;20076;-75
2024/04/22 00:17:21;;;;;;;10.98;2.97;;;;;;;;;;5041579;28;20032;-76
2024/04/22 00:19:47;;;;;;;6.40;3.15;;;;;;;;;;5019870;28;20053;-75
2024/04/22 00:22:13;;;;;;;4.20;3.10;;;;;;;;;;5038025;28;20041;-76
2024/04/22 00:24:39;;;;;;;4.35;2.70;;;;;;;;;;5037926;28;20072;-76
2024/04/22 00:27:05;;;;;;;6.22;2.63;;;;;;;;;;5040923;28;20036;-76
2024/04/22 00:29:31;;;;;;;7.28;2.70;;;;;;;;;;5033529;28;20481;-75
2024/04/22 00:31:57;;;;;;;5.82;2.90;;;;;;;;;;5039779;28;20040;-75
2024/04/22 00:34:22;;;;;;;4.07;2.63;;;;;;;;;;5020167;28;20033;-74
2024/04/22 00:36:48;;;;;;;5.97;3.20;;;;;;;;;;5004860;28;20405;-75
2024/04/22 00:39:14;;;;;;;3.95;2.53;;;;;;;;;;5035372;28;20098;-75
2024/04/22 00:41:40;;;;;;;4.68;3.10;;;;;;;;;;5040009;28;20120;-75
2024/04/22 00:44:06;;;;;;;7.05;2.80;;;;;;;;;;5016142;28;20039;-76
2024/04/22 00:46:32;;;;;;;4.05;2.80;;;;;;;;;;5036999;28;20033;-76
2024/04/22 00:48:58;;;;;;;6.60;2.47;;;;;;;;;;5037725;28;20049;-76
2024/04/22 00:51:24;;;;;;;7.88;2.80;;;;;;;;;;5039339;28;20049;-75
2024/04/22 00:53:49;;;;;;;3.20;2.90;;;;;;;;;;5000707;28;20037;-75
2024/04/22 00:56:15;;;;;;;7.93;2.72;;;;;;;;;;5001776;28;20037;-76
2024/04/22 00:58:41;;;;;;;10.23;3.47;;;;;;;;;;5036393;28;20425;-75
2024/04/22 01:01:09;;;;;;;8.63;2.78;;;;;;;;;;5039011;28;20033;-75
2024/04/22 01:03:35;;;;;;;4.88;3.17;;;;;;;;;;5017142;28;20028;-75
2024/04/22 01:06:01;;;;;;;4.88;2.63;;;;;;;;;;5036525;28;20781;-75
2024/04/22 01:08:27;;;;;;;4.22;3.35;;;;;;;;;;5033179;28;20036;-75
2024/04/22 01:10:53;;;;;;;5.30;2.70;;;;;;;;;;5038088;28;20053;-75
2024/04/22 01:13:19;;;;;;;4.47;2.53;;;;;;;;;;5020917;28;20063;-74
2024/04/22 01:15:45;;;;;;;6.20;2.78;;;;;;;;;;5037971;28;20053;-76
2024/04/22 01:18:17;;;;;;;3.25;2.65;;;;;;;;;;5035680;28;20087;-74
2024/04/22 01:20:43;;;;;;;4.72;2.90;;;;;;;;;;5020274;28;20048;-74
2024/04/22 01:23:09;;;;;;;6.38;2.80;;;;;;;;;;5023220;28;20039;-75
2024/04/22 01:25:35;;;;;;;5.65;2.78;;;;;;;;;;4986226;28;20483;-74
2024/04/22 01:28:01;;;;;;;4.85;2.53;;;;;;;;;;5014746;28;20561;-74
2024/04/22 01:30:27;;;;;;;7.05;2.80;;;;;;;;;;5015136;28;20132;-74
2024/04/22 01:32:53;;;;;;;7.13;3.35;;;;;;;;;;5033370;28;20463;-76
2024/04/22 01:35:19;;;;;;;3.50;2.97;;;;;;;;;;5022736;28;20037;-75
2024/04/22 01:37:45;;;;;;;7.75;3.17;;;;;;;;;;5039425;28;20033;-74
2024/04/22 01:40:12;;;;;;;2.80;2.60;;;;;;;;;;5033493;28;20053;-75
2024/04/22 01:42:38;;;;;;;8.57;3.03;;;;;;;;;;5017773;28;20060;-74
2024/04/22 01:45:04;;;;;;;8.05;3.15;;;;;;;;;;5036251;28;20080;-74
2024/04/22 01:47:30;;;;;;;4.78;3.53;;;;;;;;;;5020445;28;20061;-75
2024/04/22 01:49:56;;;;;;;5.10;3.05;;;;;;;;;;5007875;28;20033;-75
2024/04/22 01:52:22;;;;;;;5.25;3.25;;;;;;;;;;5041098;28;20033;-75
2024/04/22 01:54:48;;;;;;;5.20;3.00;;;;;;;;;;5041863;28;20037;-75
2024/04/22 01:57:14;;;;;;;4.82;3.30;;;;;;;;;;5002329;28;20576;-73
2024/04/22 01:59:40;;;;;;;4.18;3.40;;;;;;;;;;5022511;28;20056;-74
2024/04/22 02:02:06;;;;;;;6.35;3.58;;;;;;;;;;4992155;28;20065;-76
2024/04/22 02:04:32;;;;;;;3.17;2.97;;;;;;;;;;5040369;28;20029;-76
2024/04/22 02:06:58;;;;;;;6.28;3.20;;;;;;;;;;5023106;28;20029;-74
2024/04/22 02:09:23;;;;;;;9.65;3.47;;;;;;;;;;5023218;28;20180;-73
2024/04/22 02:11:53;;;;;;;3.20;2.80;;;;;;;;;;5023605;28;20417;-74
2024/04/22 02:14:19;;;;;;;8.43;3.45;;;;;;;;;;5036514;28;20072;-72
2024/04/22 02:16:48;;;;;;;7.20;3.70;;;;;;;;;;5024934;28;20036;-75
2024/04/22 02:19:14;;;;;;;6.28;3.40;;;;;;;;;;5042557;28;20060;-75
2024/04/22 02:21:40;;;;;;;4.80;3.17;;;;;;;;;;5019608;28;20378;-74
2024/04/22 02:24:05;;;;;;;7.28;3.90;;;;;;;;;;5026802;28;20083;-74
2024/04/22 02:26:31;;;;;;;10.05;4.13;;;;;;;;;;5035732;28;20022;-75
2024/04/22 02:28:57;;;;;;;6.47;3.50;;;;;;;;;;5017281;28;20038;-74
2024/04/22 02:31:23;;;;;;;9.30;4.00;;;;;;;;;;5019970;28;20528;-74
2024/04/22 02:33:49;;;;;;;5.57;3.78;;;;;;;;;;5024918;28;20060;-77
2024/04/22 02:36:15;;;;;;;6.47;3.92;;;;;;;;;;5004742;28;20421;-76
2024/04/22 02:38:41;;;;;;;10.15;3.60;;;;;;;;;;5020962;28;20793;-77
2024/04/22 02:41:07;;;;;;;8.65;3.83;;;;;;;;;;5007467;28;20036;-76
2024/04/22 02:43:33;;;;;;;7.47;3.60;;;;;;;;;;5021684;28;20037;-76
2024/04/22 02:45:59;;;;;;;5.32;3.40;;;;;;;;;;5039682;28;20103;-75
2024/04/22 02:48:25;;;;;;;4.93;3.55;;;;;;;;;;5024326;28;20457;-75
2024/04/22 02:50:51;;;;;;;9.13;4.10;;;;;;;;;;5022974;28;20037;-75
2024/04/22 02:53:17;;;;;;;6.22;4.07;;;;;;;;;;5039172;28;20417;-74
2024/04/22 02:55:44;;;;;;;6.40;4.70;;;;;;;;;;5041867;28;20037;-71
2024/04/22 02:58:10;;;;;;;5.13;3.63;;;;;;;;;;5035634;28;20030;-76
2024/04/22 03:00:38;;;;;;;7.10;3.60;;;;;;;;;;5027850;28;20044;-75
2024/04/22 03:03:04;;;;;;;7.65;3.58;;;;;;;;;;5035970;28;20033;-75
2024/04/22 03:05:30;;;;;;;5.32;3.38;;;;;;;;;;4991113;28;20124;-76
2024/04/22 03:07:55;;;;;;;5.78;3.95;;;;;;;;;;5045849;28;20117;-76
2024/04/22 03:10:21;;;;;;;3.92;3.60;;;;;;;;;;5018480;28;20169;-75
2024/04/22 03:12:48;;;;;;;5.82;3.42;;;;;;;;;;5001693;28;20128;-74
2024/04/22 03:15:14;;;;;;;10.73;3.65;;;;;;;;;;5036274;28;20029;-75
2024/04/22 03:17:40;;;;;;;5.75;3.70;;;;;;;;;;5021041;28;20033;-75
2024/04/22 03:20:07;;;;;;;8.18;4.32;;;;;;;;;;5023239;28;20140;-75
2024/04/22 03:22:33;;;;;;;4.85;4.10;;;;;;;;;;5027776;28;20559;-76
2024/04/22 03:24:59;;;;;;;8.82;4.10;;;;;;;;;;5034943;28;20052;-75
2024/04/22 03:27:25;;;;;;;7.25;3.40;;;;;;;;;;5025014;28;20036;-75
2024/04/22 03:29:51;;;;;;;9.60;3.55;;;;;;;;;;5021434;28;20084;-76
2024/04/22 03:32:17;;;;;;;9.40;4.20;;;;;;;;;;5006535;28;20041;-74
2024/04/22 03:34:43;;;;;;;6.60;3.85;;;;;;;;;;4986987;28;20041;-75
2024/04/22 03:37:09;;;;;;;7.97;3.88;;;;;;;;;;4992355;28;20084;-74
2024/04/22 03:39:35;;;;;;;10.50;4.45;;;;;;;;;;5012480;28;20512;-75
2024/04/22 03:42:01;;;;;;;5.70;3.75;;;;;;;;;;5011111;28;20080;-75
2024/04/22 03:44:27;;;;;;;6.60;3.83;;;;;;;;;;5009069;28;20045;-75
2024/04/22 03:49:51;;;;;;;6.07;3.80;;;;;;;;;;5009394;28;20052;-75
2024/04/22 03:52:18;;;;;;;9.05;3.55;;;;;;;;;;5026759;28;20040;-75
2024/04/22 03:54:44;;;;;;;10.68;4.78;;;;;;;;;;5011608;28;20038;-74
2024/04/22 03:57:10;;;;;;;10.23;4.53;;;;;;;;;;5004813;28;20490;-75
2024/04/22 03:59:36;;;;;;;4.20;3.63;;;;;;;;;;5025869;28;20049;-76
2024/04/22 04:02:01;;;;;;;5.50;4.05;;;;;;;;;;5005007;28;20517;-75
2024/04/22 04:04:27;;;;;;;6.35;3.97;;;;;;;;;;4998607;28;20041;-75
2024/04/22 04:06:53;;;;;;;8.50;5.00;;;;;;;;;;5001195;28;20396;-75
2024/04/22 04:09:20;;;;;;;6.78;4.07;;;;;;;;;;5040434;28;20166;-75
2024/04/22 04:11:46;;;;;;;11.40;4.38;;;;;;;;;;5017589;28;20037;-75
2024/04/22 04:14:11;;;;;;;9.07;4.18;;;;;;;;;;5019581;28;20074;-75
2024/04/22 04:16:37;;;;;;;4.60;3.35;;;;;;;;;;5016082;28;20031;-76
2024/04/22 04:19:03;;;;;;;8.35;4.35;;;;;;;;;;5021932;28;20053;-76
2024/04/22 04:21:29;;;;;;;4.35;3.28;;;;;;;;;;5032890;28;20032;-76
2024/04/22 04:23:55;;;;;;;7.88;3.45;;;;;;;;;;5038109;28;20144;-76
2024/04/22 04:26:21;;;;;;;7.65;4.35;;;;;;;;;;5013494;28;20025;-74
2024/04/22 04:28:47;;;;;;;9.35;4.47;;;;;;;;;;5014593;28;20049;-74
2024/04/22 04:31:13;;;;;;;4.40;3.58;;;;;;;;;;5034534;28;20057;-75
2024/04/22 04:33:39;;;;;;;6.15;4.07;;;;;;;;;;5001566;28;20064;-76
2024/04/22 04:36:05;;;;;;;11.13;3.90;;;;;;;;;;5038082;28;20032;-75
2024/04/22 04:38:31;;;;;;;8.93;3.67;;;;;;;;;;5000149;28;20072;-76
2024/04/22 04:40:57;;;;;;;11.02;4.85;;;;;;;;;;5036032;28;20124;-77
2024/04/22 04:43:23;;;;;;;6.75;3.35;;;;;;;;;;5022393;28;20064;-74
2024/04/22 04:45:49;;;;;;;10.38;4.25;;;;;;;;;;5038105;28;20088;-75
2024/04/22 04:48:21;;;;;;;10.77;4.70;;;;;;;;;;5037322;28;20079;-75
2024/04/22 04:50:47;;;;;;;8.88;4.03;;;;;;;;;;5036449;28;20029;-74
2024/04/22 04:53:13;;;;;;;3.92;3.58;;;;;;;;;;5023541;28;20051;-75
2024/04/22 04:55:39;;;;;;;3.85;3.47;;;;;;;;;;5033777;28;20490;-76
2024/04/22 04:58:05;;;;;;;4.65;3.60;;;;;;;;;;5038494;28;20037;-75
2024/04/22 05:00:31;;;;;;;4.85;3.88;;;;;;;;;;5036947;28;20497;-76
2024/04/22 05:02:58;;;;;;;7.20;4.57;;;;;;;;;;5018834;28;20127;-75
2024/04/22 05:05:27;;;;;;;8.00;4.68;;;;;;;;;;5003890;28;20185;-74
2024/04/22 05:07:54;;;;;;;7.20;3.90;;;;;;;;;;5021616;28;20534;-75
2024/04/22 05:10:21;;;;;;;19.63;5.13;;;;;;;;;;5004976;28;20064;-75
2024/04/22 05:12:48;;;;;;;7.30;4.90;;;;;;;;;;4991921;28;20528;-75
2024/04/22 05:15:14;;;;;;;5.82;4.95;;;;;;;;;;5021279;28;20041;-75
2024/04/22 05:17:40;;;;;;;15.00;4.68;;;;;;;;;;5041427;28;20025;-74
2024/04/22 05:20:06;;;;;;;13.35;4.50;;;;;;;;;;5038753;28;20114;-75
2024/04/22 05:22:32;;;;;;;11.38;3.95;;;;;;;;;;5007460;28;20498;-75
2024/04/22 05:24:57;;;;;;;7.32;4.13;;;;;;;;;;5031489;28;20037;-74
2024/04/22 05:27:23;;;;;;;12.93;4.50;;;;;;;;;;5020106;28;20029;-75
2024/04/22 05:29:49;;;;;;;7.43;4.40;;;;;;;;;;5041926;28;20056;-76
2024/04/22 05:32:17;;;;;;;8.77;4.25;;;;;;;;;;5021301;28;20405;-75
2024/04/22 05:37:30;;;;;;;5.78;3.70;;;;;;;;;;5043618;28;20033;-76
2024/04/22 05:39:56;;;;;;;8.23;3.30;;;;;;;;;;5022927;28;20136;-76
2024/04/22 05:42:22;;;;;;;8.98;3.90;;;;;;;;;;5022841;28;20047;-75
2024/04/22 05:44:48;;;;;;;14.65;4.07;;;;;;;;;;5002764;28;20120;-77
2024/04/22 05:47:14;;;;;;;4.28;3.25;;;;;;;;;;5021065;28;20033;-76
2024/04/22 05:49:40;;;;;;;5.07;3.15;;;;;;;;;;5035617;28;20052;-75
2024/04/22 05:52:06;;;;;;;5.72;3.08;;;;;;;;;;5025402;28;20068;-77
2024/04/22 05:54:32;;;;;;;10.15;3.35;;;;;;;;;;5033099;28;20105;-75
2024/04/22 05:56:58;;;;;;;6.90;3.95;;;;;;;;;;5043061;28;20040;-76
2024/04/22 05:59:24;;;;;;;5.05;3.60;;;;;;;;;;5020235;28;20061;-74
2024/04/22 06:01:50;;;;;;;5.32;3.53;;;;;;;;;;5036159;28;20460;-76
2024/04/22 06:04:16;;;;;;;10.75;3.50;;;;;;;;;;5004201;28;20026;-78
2024/04/22 06:06:42;;;;;;;5.22;3.00;;;;;;;;;;5031735;28;20033;-77
2024/04/22 06:09:14;;;;;;;8.98;3.65;;;;;;;;;;4998347;28;20049;-77
2024/04/22 06:11:41;;;;;;;8.05;3.72;;;;;;;;;;5014250;28;20528;-77
2024/04/22 06:14:07;;;;;;;8.65;3.40;;;;;;;;;;5011753;28;20060;-76
2024/04/22 06:16:34;;;;;;;6.07;3.40;;;;;;;;;;4997710;28;20030;-76
2024/04/22 06:19:00;;;;;;;9.63;3.22;;;;;;;;;;5017393;28;20057;-76
2024/04/22 06:21:29;;;;;;;11.00;3.50;;;;;;;;;;5001224;28;20026;-76
2024/04/22 06:23:55;;;;;;;5.25;3.47;;;;;;;;;;4978382;28;20092;-76
2024/04/22 06:26:21;;;;;;;6.78;3.08;;;;;;;;;;4980827;28;20049;-77
2024/04/22 06:28:47;;;;;;;9.88;3.60;;;;;;;;;;5000875;28;20041;-77
2024/04/22 06:31:13;;;;;;;11.07;3.30;;;;;;;;;;4985442;28;20021;-77
2024/04/22 06:33:42;;;;;;;7.30;3.58;;;;;;;;;;5025745;28;20506;-77
2024/04/22 06:36:09;;;;;;;8.30;3.47;;;;;;;;;;4992151;28;20708;-76
2024/04/22 06:38:35;;;;;;;5.72;3.20;;;;;;;;;;5001163;28;20287;-74
2024/04/22 06:41:01;;;;;;;5.38;3.63;;;;;;;;;;4982080;28;20525;-76
2024/04/22 06:43:30;;;;;;;6.53;3.58;;;;;;;;;;4991336;28;20037;-76
2024/04/22 06:45:56;;;;;;;10.32;3.53;;;;;;;;;;5011187;28;20037;-76
2024/04/22 06:48:22;;;;;;;7.40;3.35;;;;;;;;;;4966970;28;20626;-75
2024/04/22 06:50:51;;;;;;;8.95;3.88;;;;;;;;;;5031156;28;20037;-76
2024/04/22 06:53:21;;;;;;;6.30;3.90;;;;;;;;;;5001742;28;20038;-77
2024/04/22 06:55:49;;;;;;;7.18;3.70;;;;;;;;;;4988526;28;20132;-76
2024/04/22 06:58:15;;;;;;;11.70;3.42;;;;;;;;;;5026104;28;20069;-75
2024/04/22 07:00:41;;;;;;;5.78;3.70;;;;;;;;;;5004723;28;20060;-76
2024/04/22 07:03:07;;;;;;;9.35;3.47;;;;;;;;;;5004152;28;20046;-77
2024/04/22 07:05:33;;;;;;;14.40;3.72;;;;;;;;;;5032062;28;20034;-78
2024/04/22 07:07:59;;;;;;;10.23;3.72;;;;;;;;;;4994304;28;20040;-78
2024/04/22 07:10:25;;;;;;;8.23;3.40;;;;;;;;;;5033257;28;20590;-78
2024/04/22 07:12:53;;;;;;;7.15;3.53;;;;;;;;;;5041352;28;20153;-77
2024/04/22 07:15:20;;;;;;;17.70;3.80;;;;;;;;;;5021246;28;20108;-77
2024/04/22 07:18:05;;;;;;;8.55;3.92;;;;;;;;;;5035076;28;20037;-78
2024/04/22 07:20:31;;;;;;;8.73;2.78;;;;;;;;;;5042662;28;20075;-78
2024/04/22 07:22:56;;;;;;;2.75;2.33;;;;;;;;;;5021271;28;20061;-79
2024/04/22 07:25:23;;;;;;;5.10;2.22;;;;;;;;;;5006199;28;20028;-78
2024/04/22 07:27:49;;;;;;;10.00;2.55;;;;;;;;;;5039621;28;20456;-79
2024/04/22 07:30:20;;;;;;;6.75;2.10;;;;;;;;;;5036170;28;20032;-78
2024/04/22 07:32:48;;;;;;;6.45;2.40;;;;;;;;;;5037481;28;20095;-77
2024/04/22 07:35:14;;;;;;;3.95;2.35;;;;;;;;;;5037126;28;20036;-78
2024/04/22 07:37:40;;;;;;;5.65;3.03;;;;;;;;;;5038224;28;20119;-77
2024/04/22 07:40:16;;;;;;;6.53;2.13;;;;;;;;;;5020742;28;20053;-77
2024/04/22 07:42:42;;;;;;;4.43;2.13;;;;;;;;;;5040601;28;20473;-77
2024/04/22 07:45:08;;;;;;;3.90;2.53;;;;;;;;;;5021549;28;20025;-77
2024/04/22 07:47:34;;;;;;;3.88;2.00;;;;;;;;;;5042669;28;20115;-77
2024/04/22 07:50:00;;;;;;;6.07;2.00;;;;;;;;;;5037656;28;20517;-78
2024/04/22 07:52:27;;;;;;;4.10;1.90;;;;;;;;;;5033952;28;20417;-78
2024/04/22 07:54:53;;;;;;;4.47;2.25;;;;;;;;;;5005598;28;20035;-77
2024/04/22 07:57:18;;;;;;;4.70;2.85;;;;;;;;;;5019121;28;20106;-77
2024/04/22 07:59:44;;;;;;;1.88;1.77;;;;;;;;;;5022513;28;20568;-76
2024/04/22 08:02:10;;;;;;;4.10;2.00;;;;;;;;;;5018644;28;20048;-76
2024/04/22 08:04:37;;;;;;;9.00;2.85;;;;;;;;;;5033228;28;20021;-75
2024/04/22 08:07:03;;;;;;;3.53;2.15;;;;;;;;;;5018850;28;20039;-76
2024/04/22 08:09:29;;;;;;;2.00;1.80;;;;;;;;;;5014672;28;20571;-75
2024/04/22 08:11:55;;;;;;;3.15;2.28;;;;;;;;;;5021326;28;20037;-75
2024/04/22 08:14:21;;;;;;;2.47;2.08;;;;;;;;;;5038186;28;20037;-76
2024/04/22 08:16:47;;;;;;;2.42;1.85;;;;;;;;;;5019712;28;20044;-77
2024/04/22 08:19:13;;;;;;;3.05;2.00;;;;;;;;;;5034482;28;20046;-76
2024/04/22 08:21:39;;;;;;;5.95;2.10;;;;;;;;;;5015624;28;20030;-76
2024/04/22 08:24:05;;;;;;;12.90;2.38;;;;;;;;;;5041552;28;20025;-76
2024/04/22 08:26:31;;;;;;;5.43;2.20;;;;;;;;;;5016838;28;20029;-76
2024/04/22 08:28:56;;;;;;;6.38;2.30;;;;;;;;;;5015173;28;20045;-75
2024/04/22 08:31:23;;;;;;;5.65;2.22;;;;;;;;;;5015786;28;20497;-78
2024/04/22 08:33:49;;;;;;;7.40;2.30;;;;;;;;;;5015614;28;20088;-75
2024/04/22 08:36:15;;;;;;;3.45;1.98;;;;;;;;;;5008031;28;20523;-79
2024/04/22 08:38:41;;;;;;;6.07;2.65;;;;;;;;;;5002218;28;20441;-79
2024/04/22 08:41:14;;;;;;;6.13;2.58;;;;;;;;;;5035843;28;20033;-75
2024/04/22 08:43:40;;;;;;;6.10;2.60;;;;;;;;;;4973706;28;20516;-75
2024/04/22 08:46:07;;;;;;;3.95;2.53;;;;;;;;;;5018005;28;20139;-75
2024/04/22 08:48:32;;;;;;;9.98;2.95;;;;;;;;;;5008781;28;20122;-74
2024/04/22 08:50:59;;;;;;;3.35;2.38;;;;;;;;;;5021648;28;20032;-74
2024/04/22 08:53:25;;;;;;;5.03;3.15;;;;;;;;;;5003616;28;20132;-82
2024/04/22 08:56:18;;;;;;;2.85;2.53;;;;;;;;;;5029362;28;20541;-80
2024/04/22 08:59:07;;;;;;;4.47;1.92;;;;;;;;;;4995540;28;20513;-80
2024/04/22 09:01:33;;;;;;;2.92;2.25;;;;;;;;;;4987293;28;20512;-82
2024/04/22 09:04:06;;;;;;;5.80;2.60;;;;;;;;;;5007375;28;20041;-82
2024/04/22 09:06:37;;;;;;;7.35;2.80;;;;;;;;;;5035835;28;20022;-84
2024/04/22 09:09:05;;;;;;;2.70;2.10;;;;;;;;;;4994966;28;20056;-81
2024/04/22 09:11:31;;;;;;;3.90;2.10;;;;;;;;;;5006002;28;20062;-82
2024/04/22 09:14:16;;;;;;;1.80;1.70;;;;;;;;;;5002286;28;20057;-81
2024/04/22 09:16:43;;;;;;;2.28;1.88;;;;;;;;;;4973573;28;20049;-78
2024/04/22 09:19:09;;;;;;;3.03;2.30;;;;;;;;;;4988252;28;20052;-80
2024/04/22 09:21:36;;;;;;;12.05;3.00;;;;;;;;;;4986420;28;20596;-79
2024/04/22 09:24:03;;;;;;;6.72;2.25;;;;;;;;;;5026337;28;20029;-81
2024/04/22 09:26:29;;;;;;;2.75;2.50;;;;;;;;;;5044856;28;20489;-79
2024/04/22 09:28:56;;;;;;;7.72;2.55;;;;;;;;;;4992223;28;20089;-81
2024/04/22 09:31:22;;;;;;;3.55;1.92;;;;;;;;;;5012991;28;20029;-80
2024/04/22 09:33:48;;;;;;;3.47;2.10;;;;;;;;;;5042537;28;20037;-81
2024/04/22 09:36:15;;;;;;;5.97;2.50;;;;;;;;;;4999611;28;20382;-79
2024/04/22 09:38:41;;;;;;;4.53;2.28;;;;;;;;;;5009049;28;20073;-80
2024/04/22 09:41:07;;;;;;;3.05;2.25;;;;;;;;;;5019275;28;20036;-79
2024/04/22 09:43:36;;;;;;;4.18;1.90;;;;;;;;;;5018879;28;20045;-78
2024/04/22 09:46:04;;;;;;;2.40;2.10;;;;;;;;;;5037162;28;20093;-80
2024/04/22 09:48:30;;;;;;;2.50;2.30;;;;;;;;;;5037860;28;20029;-79
2024/04/22 09:50:57;;;;;;;2.10;1.90;;;;;;;;;;5062372;28;20013;-80
2024/04/22 09:53:23;;;;;;;2.40;1.88;;;;;;;;;;5052422;28;20025;-78
2024/04/22 09:55:49;;;;;;;4.35;2.30;;;;;;;;;;5013811;28;20052;-79
2024/04/22 09:58:15;;;;;;;8.60;2.58;;;;;;;;;;5025517;28;20112;-76
2024/04/22 10:00:43;;;;;;;4.88;2.45;;;;;;;;;;5055895;28;20024;-77
2024/04/22 10:06:55;;;;;;;8.52;2.85;;;;;;;;;;5030403;28;20056;-82
2024/04/22 10:09:21;;;;;;;3.33;2.97;;;;;;;;;;5024453;28;20088;-82
2024/04/22 10:11:47;;;;;;;4.85;2.70;;;;;;;;;;5047996;28;20033;-82
2024/04/22 10:14:16;;;;;;;3.10;2.42;;;;;;;;;;5042767;28;20033;-78
2024/04/22 10:17:00;;;;;;;4.20;2.75;;;;;;;;;;5030203;28;20029;-81
2024/04/22 10:19:27;;;;;;;10.98;3.28;;;;;;;;;;5052398;28;20101;-79
2024/04/22 10:21:57;;;;;;;3.17;2.80;;;;;;;;;;5037391;28;20569;-81
2024/04/22 10:24:30;;;;;;;5.53;3.40;;;;;;;;;;5035701;28;20059;-82
2024/04/22 10:26:57;;;;;;;4.80;3.33;;;;;;;;;;5040358;28;20055;-83
2024/04/22 10:29:23;;;;;;;4.07;3.67;;;;;;;;;;5051679;28;20061;-81
2024/04/22 10:31:49;;;;;;;5.00;2.78;;;;;;;;;;5035206;28;20038;-82
2024/04/22 10:34:15;;;;;;;3.78;3.42;;;;;;;;;;5034274;28;20029;-82
2024/04/22 10:36:41;;;;;;;4.18;3.88;;;;;;;;;;5020476;28;20037;-81
2024/04/22 10:39:07;;;;;;;4.43;4.00;;;;;;;;;;5046694;28;20101;-79
2024/04/22 10:41:33;;;;;;;4.70;3.50;;;;;;;;;;5050963;28;20064;-82
2024/04/22 10:43:59;;;;;;;4.00;3.53;;;;;;;;;;5021670;28;20025;-83
2024/04/22 10:46:25;;;;;;;4.20;3.83;;;;;;;;;;5050578;28;20049;-80
2024/04/22 10:48:51;;;;;;;3.78;3.47;;;;;;;;;;5044369;28;20057;-81
2024/04/22 10:51:17;;;;;;;4.72;3.70;;;;;;;;;;5046878;28;20092;-83
2024/04/22 10:53:43;;;;;;;4.65;4.15;;;;;;;;;;5067346;28;20088;-81
2024/04/22 10:56:09;;;;;;;3.75;3.15;;;;;;;;;;5033693;28;20489;-81
2024/04/22 10:58:35;;;;;;;5.22;4.10;;;;;;;;;;5007972;28;20077;-83
2024/04/22 11:01:01;;;;;;;7.28;3.92;;;;;;;;;;5009492;28;20041;-84
2024/04/22 11:03:26;;;;;;;6.50;3.63;;;;;;;;;;5074046;28;20026;-81
2024/04/22 11:05:58;;;;;;;6.13;3.13;;;;;;;;;;5073370;28;20040;-83
2024/04/22 11:08:24;;;;;;;3.42;2.72;;;;;;;;;;5049561;28;20025;-80
2024/04/22 11:10:50;;;;;;;4.72;2.35;;;;;;;;;;5065298;28;20082;-80
2024/04/22 11:13:16;;;;;;;2.50;2.30;;;;;;;;;;5044489;28;20049;-82
2024/04/22 11:15:43;;;;;;;2.20;2.10;;;;;;;;;;5033337;28;20440;-83
2024/04/22 11:18:09;;;;;;;1.98;1.88;;;;;;;;;;5043178;28;20037;-80
2024/04/22 11:20:35;;;;;;;6.75;2.03;;;;;;;;;;5058449;28;20049;-80
2024/04/22 11:23:01;;;;;;;15.80;2.13;;;;;;;;;;5031344;28;20033;-82
2024/04/22 11:25:27;;;;;;;4.90;2.45;;;;;;;;;;5038849;28;20093;-82
2024/04/22 11:27:53;;;;;;;3.78;2.00;;;;;;;;;;5037873;28;20051;-80
2024/04/22 11:30:19;;;;;;;2.85;1.90;;;;;;;;;;5037669;28;20092;-81
2024/04/22 11:32:45;;;;;;;2.00;1.80;;;;;;;;;;5060156;28;20148;-82
2024/04/22 11:35:12;;;;;;;2.05;1.70;;;;;;;;;;5037958;28;20040;-80
2024/04/22 11:37:38;;;;;;;3.90;1.85;;;;;;;;;;5061360;28;20029;-79
2024/04/22 11:40:04;;;;;;;1.80;1.70;;;;;;;;;;5055144;28;20036;-81
2024/04/22 11:42:30;;;;;;;1.58;1.55;;;;;;;;;;5037252;28;20056;-81
2024/04/22 11:44:56;;;;;;;19.45;3.70;;;;;;;;;;5062311;28;20052;-83
2024/04/22 11:47:26;;;;;;;2.67;1.75;;;;;;;;;;5039133;28;20044;-82
2024/04/22 11:49:53;;;;;;;1.73;1.23;;;;;;;;;;5027215;28;20441;-81
2024/04/22 11:52:20;;;;;;;1.67;1.33;;;;;;;;;;5051052;28;20039;-82
2024/04/22 11:54:46;;;;;;;1.67;1.58;;;;;;;;;;5049087;28;20040;-81
2024/04/22 11:57:12;;;;;;;1.90;1.63;;;;;;;;;;5047075;28;20052;-80
2024/04/22 11:59:38;;;;;;;2.47;1.50;;;;;;;;;;5058391;28;20037;-81
2024/04/22 12:02:03;;;;;;;1.83;1.67;;;;;;;;;;5055570;28;20098;-81
2024/04/22 12:04:30;;;;;;;1.50;1.40;;;;;;;;;;5053579;28;20429;-81
2024/04/22 12:06:56;;;;;;;2.10;1.50;;;;;;;;;;5055181;28;20100;-82
2024/04/22 12:09:22;;;;;;;1.65;1.30;;;;;;;;;;5038033;28;20049;-80
2024/04/22 12:11:49;;;;;;;1.77;1.40;;;;;;;;;;5039505;28;20171;-81
2024/04/22 12:14:15;;;;;;;1.63;1.58;;;;;;;;;;5058742;28;20598;-82
2024/04/22 12:16:41;;;;;;;1.70;1.60;;;;;;;;;;5060889;28;20029;-83
2024/04/22 12:19:07;;;;;;;1.70;1.60;;;;;;;;;;5050781;28;20069;-82
2024/04/22 12:21:33;;;;;;;1.50;1.50;;;;;;;;;;5065036;28;20059;-82
2024/04/22 12:23:59;;;;;;;1.55;1.45;;;;;;;;;;5036510;28;20009;-82
2024/04/22 12:26:25;;;;;;;1.90;1.73;;;;;;;;;;5046318;28;20040;-83
2024/04/22 12:28:52;;;;;;;2.40;1.67;;;;;;;;;;5062563;28;20104;-83
2024/04/22 12:31:19;;;;;;;1.88;1.77;;;;;;;;;;5055464;28;20040;-83
2024/04/22 12:33:45;;;;;;;1.52;1.52;;;;;;;;;;5043479;28;20420;-82
2024/04/22 12:36:11;;;;;;;3.78;1.73;;;;;;;;;;5070325;28;20029;-82
2024/04/22 12:38:37;;;;;;;2.00;1.80;;;;;;;;;;5055282;28;20128;-83
2024/04/22 12:41:03;;;;;;;2.33;1.73;;;;;;;;;;5037444;28;20033;-81
2024/04/22 12:43:30;;;;;;;2.17;2.08;;;;;;;;;;5049138;28;20021;-81
2024/04/22 12:46:00;;;;;;;1.70;1.60;;;;;;;;;;5004654;28;20044;-84
2024/04/22 12:51:11;;;;;;;8.55;1.77;;;;;;;;;;5030798;28;20041;-83
2024/04/22 12:53:38;;;;;;;2.35;1.83;;;;;;;;;;5065165;28;20060;-82
2024/04/22 12:56:04;;;;;;;1.70;1.60;;;;;;;;;;5056828;28;20037;-82
2024/04/22 12:58:32;;;;;;;1.38;1.25;;;;;;;;;;5043606;28;20044;-84
2024/04/22 13:01:23;;;;;;;2.15;1.65;;;;;;;;;;5024966;28;20032;-83
2024/04/22 13:03:50;;;;;;;1.27;1.27;;;;;;;;;;5049389;28;20048;-81
2024/04/22 13:06:17;;;;;;;1.50;1.40;;;;;;;;;;5014879;28;20049;-84
2024/04/22 13:08:43;;;;;;;4.53;1.48;;;;;;;;;;5045998;28;20057;-83
2024/04/22 13:11:09;;;;;;;1.42;1.42;;;;;;;;;;5054503;28;20106;-81
2024/04/22 13:13:35;;;;;;;1.70;1.60;;;;;;;;;;5029535;28;20029;-83
2024/04/22 13:16:02;;;;;;;3.00;1.60;;;;;;;;;;5027962;28;20017;-87
2024/04/22 13:18:53;;;;;;;2.78;1.63;;;;;;;;;;5192144;23;20060;-86
2024/04/22 13:21:19;;;;;;;1.88;1.60;;;;;;;;;;5006755;28;20042;-87
2024/04/22 13:23:45;;;;;;;4.32;1.50;;;;;;;;;;5020530;28;20066;-87
2024/04/22 13:26:12;;;;;;;1.75;1.50;;;;;;;;;;5023048;28;20037;-86
2024/04/22 13:28:37;;;;;;;1.30;1.30;;;;;;;;;;5003808;28;20057;-86
2024/04/22 13:31:04;;;;;;;2.55;1.50;;;;;;;;;;4996474;28;20039;-85
2024/04/22 13:33:30;;;;;;;1.20;1.20;;;;;;;;;;5024866;28;20086;-82
2024/04/22 13:35:56;;;;;;;1.30;1.20;;;;;;;;;;5020619;28;20050;-85
2024/04/22 13:38:21;;;;;;;1.05;1.05;;;;;;;;;;5023588;28;20050;-83
2024/04/22 13:40:47;;;;;;;2.25;1.75;;;;;;;;;;5011742;28;20061;-83
2024/04/22 13:43:13;;;;;;;4.10;2.45;;;;;;;;;;5018812;28;20386;-85
2024/04/22 13:45:39;;;;;;;2.03;1.92;;;;;;;;;;5002944;28;20035;-87
2024/04/22 13:48:05;;;;;;;1.42;1.42;;;;;;;;;;4983201;28;20022;-87
2024/04/22 13:50:31;;;;;;;1.42;1.33;;;;;;;;;;4992483;28;20095;-84
2024/04/22 13:52:57;;;;;;;1.30;1.30;;;;;;;;;;5001726;28;20042;-86
2024/04/22 13:55:23;;;;;;;6.78;3.42;;;;;;;;;;4966775;28;20030;-88
2024/04/22 13:57:49;;;;;;;1.23;1.23;;;;;;;;;;5006893;28;20042;-86
2024/04/22 14:00:15;;;;;;;2.05;1.27;;;;;;;;;;4985490;28;20070;-86
2024/04/22 14:02:41;;;;;;;1.00;1.00;;;;;;;;;;5004849;28;20042;-85
2024/04/22 14:05:07;;;;;;;2.67;1.23;;;;;;;;;;5005199;28;20049;-84
2024/04/22 14:07:33;;;;;;;2.55;1.30;;;;;;;;;;4990862;28;20090;-84
2024/04/22 14:09:59;;;;;;;1.90;1.80;;;;;;;;;;4991199;28;20058;-84
2024/04/22 14:12:25;;;;;;;3.35;1.67;;;;;;;;;;5009614;28;20010;-85
2024/04/22 14:14:51;;;;;;;1.67;1.40;;;;;;;;;;5009999;28;20034;-79
2024/04/22 14:17:17;;;;;;;3.40;1.65;;;;;;;;;;4961205;28;20049;-85
2024/04/22 14:19:43;;;;;;;2.22;1.70;;;;;;;;;;5010091;28;20054;-85
2024/04/22 14:22:09;;;;;;;1.80;1.70;;;;;;;;;;5007424;28;20062;-83
2024/04/22 14:24:35;;;;;;;2.17;1.50;;;;;;;;;;5001200;28;20035;-86
2024/04/22 14:27:01;;;;;;;4.80;1.10;;;;;;;;;;4968666;28;20123;-85
2024/04/22 14:29:27;;;;;;;1.20;1.10;;;;;;;;;;4967536;28;20077;-82
2024/04/22 14:31:59;;;;;;;2.40;1.20;;;;;;;;;;4986074;28;20019;-86
2024/04/22 14:34:25;;;;;;;2.08;1.10;;;;;;;;;;4987482;28;20026;-86
2024/04/22 14:36:52;;;;;;;1.15;1.10;;;;;;;;;;5014859;28;20006;-83
2024/04/22 14:39:19;;;;;;;4.88;1.10;;;;;;;;;;4988527;28;20371;-85
2024/04/22 14:41:44;;;;;;;2.28;1.00;;;;;;;;;;5013467;28;20015;-85
2024/04/22 14:44:11;;;;;;;1.15;1.15;;;;;;;;;;4973377;28;20083;-84
2024/04/22 14:46:38;;;;;;;2.25;1.10;;;;;;;;;;5002413;28;20025;-86
2024/04/22 14:54:42;;;;;;;1.10;1.10;;;;;;;;;;5196851;23;20038;-88